Time;durP1;ratioP1;P1;durP2;ratioP2;P2;SDS_P1;SDS_P2;PMS_P1;PMS_P2;Temp;Humidity;BMP_temperature;BMP_pressure;BME280_temperature;BME280_humidity;BME280_pressure;Samples;Min_cycle;Max_cycle;Signal;HPM_P1;HPM_P2
2024/04/17 00:00:43;;;;;;;25.97;11.37;;;;;;;;;;5412611;26;20547;-84
2024/04/17 00:03:09;;;;;;;24.02;11.77;;;;;;;;;;5394999;26;20470;-84
2024/04/17 00:05:35;;;;;;;27.35;12.65;;;;;;;;;;5410712;26;20241;-84
2024/04/17 00:08:01;;;;;;;16.03;12.50;;;;;;;;;;5399152;26;20281;-84
2024/04/17 00:10:27;;;;;;;20.07;11.50;;;;;;;;;;5400064;26;20600;-84
2024/04/17 00:12:52;;;;;;;20.17;12.00;;;;;;;;;;5402968;26;20466;-84
2024/04/17 00:15:18;;;;;;;23.47;12.70;;;;;;;;;;5405452;26;20545;-84
2024/04/17 00:17:44;;;;;;;20.73;13.30;;;;;;;;;;5399938;26;20462;-84
2024/04/17 00:20:10;;;;;;;23.50;12.30;;;;;;;;;;5400122;26;20813;-84
2024/04/17 00:22:36;;;;;;;27.53;10.73;;;;;;;;;;5397770;26;20524;-84
2024/04/17 00:25:02;;;;;;;18.90;12.60;;;;;;;;;;5412776;26;20457;-84
2024/04/17 00:27:28;;;;;;;33.00;11.65;;;;;;;;;;5399639;26;20318;-84
2024/04/17 00:29:54;;;;;;;35.13;14.20;;;;;;;;;;5413441;26;20277;-84
2024/04/17 00:32:20;;;;;;;18.00;12.60;;;;;;;;;;5405005;26;20475;-84
2024/04/17 00:34:46;;;;;;;20.77;11.80;;;;;;;;;;5400786;26;20501;-84
2024/04/17 00:37:12;;;;;;;28.43;13.50;;;;;;;;;;5393149;26;20466;-84
2024/04/17 00:39:38;;;;;;;20.67;12.00;;;;;;;;;;5411047;26;20598;-84
2024/04/17 00:42:04;;;;;;;17.97;11.13;;;;;;;;;;5410848;26;21052;-84
2024/04/17 00:44:30;;;;;;;22.60;10.90;;;;;;;;;;5398792;26;20559;-84
2024/04/17 00:46:56;;;;;;;29.43;11.47;;;;;;;;;;5405235;26;20569;-84
2024/04/17 00:49:22;;;;;;;17.38;11.63;;;;;;;;;;5406542;26;20853;-84
2024/04/17 00:51:49;;;;;;;25.63;11.85;;;;;;;;;;5397044;26;20238;-84
2024/04/17 00:54:15;;;;;;;15.60;11.52;;;;;;;;;;5398199;26;20243;-84
2024/04/17 00:56:41;;;;;;;14.45;10.55;;;;;;;;;;5389978;26;20295;-84
2024/04/17 00:59:08;;;;;;;15.95;10.88;;;;;;;;;;5410423;26;20230;-84
2024/04/17 01:01:34;;;;;;;27.23;10.65;;;;;;;;;;5402179;26;20555;-84
2024/04/17 01:04:00;;;;;;;15.07;9.80;;;;;;;;;;5402452;26;20239;-84
2024/04/17 01:06:27;;;;;;;20.73;10.90;;;;;;;;;;5399676;26;21021;-84
2024/04/17 01:08:53;;;;;;;35.58;11.90;;;;;;;;;;5398157;26;20289;-84
2024/04/17 01:11:19;;;;;;;22.37;10.00;;;;;;;;;;5404739;26;20235;-84
2024/04/17 01:13:45;;;;;;;14.10;10.90;;;;;;;;;;5409228;26;20474;-85
2024/04/17 01:16:10;;;;;;;29.07;11.10;;;;;;;;;;5398610;26;20235;-85
2024/04/17 01:18:37;;;;;;;19.63;11.40;;;;;;;;;;5398716;26;20461;-84
2024/04/17 01:21:04;;;;;;;27.00;10.60;;;;;;;;;;5408679;26;20548;-84
2024/04/17 01:23:30;;;;;;;15.60;10.30;;;;;;;;;;5399862;26;20280;-85
2024/04/17 01:25:55;;;;;;;16.07;11.20;;;;;;;;;;5395890;26;20240;-84
2024/04/17 01:28:21;;;;;;;19.27;10.50;;;;;;;;;;5404633;26;20460;-84
2024/04/17 01:30:47;;;;;;;20.27;10.53;;;;;;;;;;5395811;26;20789;-84
2024/04/17 01:33:13;;;;;;;18.20;11.67;;;;;;;;;;5402354;26;20461;-84
2024/04/17 01:35:39;;;;;;;28.35;11.27;;;;;;;;;;5404718;26;20611;-84
2024/04/17 01:38:05;;;;;;;22.40;10.33;;;;;;;;;;5400973;26;20243;-84
2024/04/17 01:40:31;;;;;;;13.50;11.32;;;;;;;;;;5412410;26;20512;-84
2024/04/17 01:42:57;;;;;;;20.17;10.83;;;;;;;;;;5405042;26;20581;-84
2024/04/17 01:45:23;;;;;;;21.83;11.23;;;;;;;;;;5413338;26;20458;-85
2024/04/17 01:47:49;;;;;;;16.03;10.23;;;;;;;;;;5401000;26;20528;-85
2024/04/17 01:50:25;;;;;;;17.60;11.30;;;;;;;;;;5394050;26;20520;-85
2024/04/17 01:52:51;;;;;;;18.40;11.68;;;;;;;;;;5399091;26;20528;-85
2024/04/17 01:55:17;;;;;;;23.57;11.67;;;;;;;;;;5401769;26;20251;-85
2024/04/17 01:57:43;;;;;;;18.93;11.77;;;;;;;;;;5409322;26;20785;-84
2024/04/17 02:00:09;;;;;;;16.03;11.57;;;;;;;;;;5412023;26;20467;-84
2024/04/17 02:02:35;;;;;;;23.65;11.70;;;;;;;;;;5412049;26;20549;-84
2024/04/17 02:05:02;;;;;;;17.40;11.17;;;;;;;;;;5400181;26;20318;-84
2024/04/17 02:07:28;;;;;;;16.98;11.38;;;;;;;;;;5400298;26;20983;-84
2024/04/17 02:09:54;;;;;;;18.90;11.40;;;;;;;;;;5405765;26;20231;-84
2024/04/17 02:12:20;;;;;;;11.93;10.70;;;;;;;;;;5414275;26;20509;-84
2024/04/17 02:14:46;;;;;;;12.20;10.32;;;;;;;;;;5401003;26;20243;-84
2024/04/17 02:17:12;;;;;;;15.60;11.10;;;;;;;;;;5408162;26;20610;-84
2024/04/17 02:19:38;;;;;;;19.57;11.83;;;;;;;;;;5394012;26;20596;-84
2024/04/17 02:22:04;;;;;;;30.00;12.70;;;;;;;;;;5409898;26;20513;-84
2024/04/17 02:24:30;;;;;;;20.23;12.30;;;;;;;;;;5402488;26;20282;-85
2024/04/17 02:26:56;;;;;;;16.00;12.03;;;;;;;;;;5402057;26;20454;-84
2024/04/17 02:29:22;;;;;;;19.83;12.57;;;;;;;;;;5407688;26;20898;-85
2024/04/17 02:31:48;;;;;;;22.57;12.10;;;;;;;;;;5408557;26;20460;-84
2024/04/17 02:34:14;;;;;;;13.47;12.07;;;;;;;;;;5407021;26;20456;-84
2024/04/17 02:36:40;;;;;;;16.20;12.05;;;;;;;;;;5403718;26;20456;-84
2024/04/17 02:39:06;;;;;;;19.20;11.87;;;;;;;;;;5401864;26;20289;-85
2024/04/17 02:41:32;;;;;;;28.50;12.18;;;;;;;;;;5398952;26;20521;-84
2024/04/17 02:43:58;;;;;;;17.17;11.95;;;;;;;;;;5411524;26;20685;-84
2024/04/17 02:46:24;;;;;;;24.30;12.23;;;;;;;;;;5396166;26;20235;-85
2024/04/17 02:48:50;;;;;;;15.37;12.33;;;;;;;;;;5420223;26;20444;-84
2024/04/17 02:51:16;;;;;;;19.63;13.07;;;;;;;;;;5417699;26;21039;-84
2024/04/17 02:53:42;;;;;;;22.97;13.10;;;;;;;;;;5406222;26;20833;-84
2024/04/17 02:56:08;;;;;;;22.57;12.80;;;;;;;;;;5395525;26;20553;-84
2024/04/17 02:58:36;;;;;;;22.50;13.20;;;;;;;;;;5394723;26;20477;-84
2024/04/17 03:01:09;;;;;;;13.98;12.60;;;;;;;;;;5401794;26;20234;-84
2024/04/17 03:03:35;;;;;;;15.27;12.55;;;;;;;;;;5405673;26;20297;-84
2024/04/17 03:06:01;;;;;;;13.80;12.40;;;;;;;;;;5410428;26;20234;-85
2024/04/17 03:08:27;;;;;;;22.17;12.30;;;;;;;;;;5403279;26;20526;-84
2024/04/17 03:10:59;;;;;;;18.93;12.67;;;;;;;;;;5411536;26;20520;-84
2024/04/17 03:13:25;;;;;;;16.83;13.07;;;;;;;;;;5403252;26;20462;-84
2024/04/17 03:15:51;;;;;;;14.83;13.30;;;;;;;;;;5413001;26;20568;-84
2024/04/17 03:18:17;;;;;;;16.13;13.63;;;;;;;;;;5402591;26;20462;-84
2024/04/17 03:20:43;;;;;;;14.87;12.70;;;;;;;;;;5408234;26;20558;-84
2024/04/17 03:23:09;;;;;;;24.33;13.60;;;;;;;;;;5414842;26;20520;-84
2024/04/17 03:25:35;;;;;;;15.45;13.70;;;;;;;;;;5403803;26;20458;-84
2024/04/17 03:28:01;;;;;;;27.13;14.77;;;;;;;;;;5402150;26;20400;-84
2024/04/17 03:30:27;;;;;;;26.07;13.83;;;;;;;;;;5395361;26;20458;-85
2024/04/17 03:32:53;;;;;;;18.00;14.10;;;;;;;;;;5409234;26;20862;-84
2024/04/17 03:35:19;;;;;;;14.60;13.30;;;;;;;;;;5408920;26;20842;-84
2024/04/17 03:37:45;;;;;;;29.85;14.88;;;;;;;;;;5415603;26;20663;-84
2024/04/17 03:40:11;;;;;;;23.33;14.63;;;;;;;;;;5403923;26;20276;-84
2024/04/17 03:42:37;;;;;;;17.27;14.38;;;;;;;;;;5406990;26;20883;-85
2024/04/17 03:45:04;;;;;;;16.05;14.55;;;;;;;;;;5395160;26;20248;-85
2024/04/17 03:47:31;;;;;;;22.73;14.82;;;;;;;;;;5408665;26;20245;-85
2024/04/17 03:50:02;;;;;;;23.73;15.70;;;;;;;;;;5408288;26;20281;-85
2024/04/17 03:52:28;;;;;;;19.08;14.63;;;;;;;;;;5396626;26;20283;-85
2024/04/17 03:54:54;;;;;;;20.85;15.20;;;;;;;;;;5415462;26;20249;-86
2024/04/17 03:57:20;;;;;;;18.60;15.00;;;;;;;;;;5390277;26;20382;-85
2024/04/17 03:59:46;;;;;;;24.25;16.45;;;;;;;;;;5415234;26;20457;-85
2024/04/17 04:02:12;;;;;;;18.47;16.00;;;;;;;;;;5390412;26;20776;-84
2024/04/17 04:04:38;;;;;;;22.43;15.30;;;;;;;;;;5408003;26;20859;-84
2024/04/17 04:07:04;;;;;;;20.92;15.82;;;;;;;;;;5402210;26;20460;-84
2024/04/17 04:09:31;;;;;;;16.60;14.90;;;;;;;;;;5407280;26;20840;-85
2024/04/17 04:11:57;;;;;;;19.50;16.92;;;;;;;;;;5394742;26;20239;-85
2024/04/17 04:14:23;;;;;;;19.98;15.77;;;;;;;;;;5396348;26;20285;-85
2024/04/17 04:16:49;;;;;;;29.67;16.77;;;;;;;;;;5405759;26;20639;-85
2024/04/17 04:19:15;;;;;;;29.77;16.70;;;;;;;;;;5400570;26;20372;-85
2024/04/17 04:21:41;;;;;;;27.92;17.80;;;;;;;;;;5397860;26;20277;-84
2024/04/17 04:24:07;;;;;;;25.67;17.50;;;;;;;;;;5405775;26;20236;-85
2024/04/17 04:26:33;;;;;;;24.88;17.13;;;;;;;;;;5416102;26;20465;-85
2024/04/17 04:28:59;;;;;;;24.60;16.53;;;;;;;;;;5400403;26;20280;-85
2024/04/17 04:31:26;;;;;;;29.53;18.40;;;;;;;;;;5401097;26;21053;-85
2024/04/17 04:33:52;;;;;;;23.30;18.75;;;;;;;;;;5402629;26;20464;-85
2024/04/17 04:36:18;;;;;;;27.80;18.73;;;;;;;;;;5406076;26;20285;-85
2024/04/17 04:38:44;;;;;;;28.23;18.70;;;;;;;;;;5417698;26;20568;-85
2024/04/17 04:41:10;;;;;;;35.60;19.92;;;;;;;;;;5405955;26;20340;-85
2024/04/17 04:43:36;;;;;;;32.20;20.10;;;;;;;;;;5398982;26;20565;-85
2024/04/17 04:46:02;;;;;;;29.67;22.37;;;;;;;;;;5412348;26;20227;-85
2024/04/17 04:48:28;;;;;;;32.03;22.15;;;;;;;;;;5412712;26;20975;-85
2024/04/17 04:50:54;;;;;;;29.37;21.33;;;;;;;;;;5406623;26;20234;-85
2024/04/17 04:53:20;;;;;;;29.53;26.10;;;;;;;;;;5401398;26;20889;-85
2024/04/17 04:55:57;;;;;;;38.50;29.27;;;;;;;;;;5407240;26;20485;-85
2024/04/17 04:58:23;;;;;;;39.35;27.25;;;;;;;;;;5402653;26;20457;-85
2024/04/17 05:00:49;;;;;;;29.48;26.30;;;;;;;;;;5409558;26;20690;-85
2024/04/17 05:03:15;;;;;;;38.70;26.00;;;;;;;;;;5400297;26;20239;-85
2024/04/17 05:05:41;;;;;;;39.60;25.00;;;;;;;;;;5403899;26;20502;-85
2024/04/17 05:08:07;;;;;;;34.40;26.43;;;;;;;;;;5400694;26;20241;-85
2024/04/17 05:10:33;;;;;;;29.13;24.80;;;;;;;;;;5409226;26;20497;-85
2024/04/17 05:12:59;;;;;;;47.37;26.60;;;;;;;;;;5410855;26;20530;-85
2024/04/17 05:15:25;;;;;;;33.67;25.90;;;;;;;;;;5407455;26;20697;-85
2024/04/17 05:17:51;;;;;;;27.47;24.63;;;;;;;;;;5405708;26;20513;-85
2024/04/17 05:20:17;;;;;;;35.80;26.80;;;;;;;;;;5414189;26;20524;-85
2024/04/17 05:22:43;;;;;;;40.77;22.30;;;;;;;;;;5396109;26;20803;-84
2024/04/17 05:25:09;;;;;;;45.47;24.33;;;;;;;;;;5408915;26;20458;-84
2024/04/17 05:27:35;;;;;;;37.28;26.60;;;;;;;;;;5420146;26;20602;-84
2024/04/17 05:30:01;;;;;;;30.10;27.13;;;;;;;;;;5395411;26;20235;-85
2024/04/17 05:32:27;;;;;;;36.53;29.63;;;;;;;;;;5396748;26;20466;-85
2024/04/17 05:34:53;;;;;;;37.27;26.97;;;;;;;;;;5398789;26;20521;-84
2024/04/17 05:37:19;;;;;;;33.80;27.52;;;;;;;;;;5403897;26;20528;-85
2024/04/17 05:39:45;;;;;;;45.33;30.17;;;;;;;;;;5410840;26;20840;-85
2024/04/17 05:42:11;;;;;;;35.13;29.60;;;;;;;;;;5399714;26;20795;-85
2024/04/17 05:44:40;;;;;;;35.10;28.27;;;;;;;;;;5407909;26;20250;-85
2024/04/17 05:47:06;;;;;;;39.90;28.98;;;;;;;;;;5411053;26;20449;-85
2024/04/17 05:49:32;;;;;;;37.63;30.15;;;;;;;;;;5401027;26;20350;-85
2024/04/17 05:51:58;;;;;;;41.50;29.37;;;;;;;;;;5403521;26;20265;-84
2024/04/17 05:54:24;;;;;;;38.38;26.95;;;;;;;;;;5403840;26;20520;-85
2024/04/17 05:56:50;;;;;;;29.90;26.65;;;;;;;;;;5406861;26;20604;-85
2024/04/17 05:59:16;;;;;;;29.43;26.40;;;;;;;;;;5416105;26;20331;-85
2024/04/17 06:01:42;;;;;;;41.63;27.38;;;;;;;;;;5398902;26;20870;-85
2024/04/17 06:04:08;;;;;;;25.55;22.85;;;;;;;;;;5402611;26;20243;-85
2024/04/17 06:06:34;;;;;;;39.88;23.67;;;;;;;;;;5399808;26;20532;-85
2024/04/17 06:09:01;;;;;;;39.63;25.40;;;;;;;;;;5418280;26;20278;-85
2024/04/17 06:11:27;;;;;;;30.85;22.80;;;;;;;;;;5400116;26;20866;-85
2024/04/17 06:13:53;;;;;;;35.77;22.67;;;;;;;;;;5410186;26;20244;-85
2024/04/17 06:16:19;;;;;;;37.07;24.50;;;;;;;;;;5413684;26;21043;-85
2024/04/17 06:18:45;;;;;;;30.20;22.25;;;;;;;;;;5405941;26;20465;-85
2024/04/17 06:21:10;;;;;;;31.60;23.70;;;;;;;;;;5405354;26;20239;-85
2024/04/17 06:23:36;;;;;;;31.83;22.57;;;;;;;;;;5409213;26;20507;-85
2024/04/17 06:26:02;;;;;;;29.60;22.20;;;;;;;;;;5401023;26;20565;-85
2024/04/17 06:28:28;;;;;;;33.60;24.55;;;;;;;;;;5412075;26;20454;-85
2024/04/17 06:30:54;;;;;;;29.97;22.50;;;;;;;;;;5415645;26;20614;-85
2024/04/17 06:33:20;;;;;;;27.93;24.53;;;;;;;;;;5400493;26;20514;-85
2024/04/17 06:35:46;;;;;;;38.03;24.23;;;;;;;;;;5402499;26;20567;-85
2024/04/17 06:38:12;;;;;;;33.20;24.37;;;;;;;;;;5402917;26;20503;-85
2024/04/17 06:40:38;;;;;;;61.77;39.67;;;;;;;;;;5409572;26;20464;-85
2024/04/17 06:43:05;;;;;;;36.87;26.00;;;;;;;;;;5408924;26;20534;-85
2024/04/17 06:45:31;;;;;;;37.28;26.38;;;;;;;;;;5405870;26;20468;-85
2024/04/17 06:47:57;;;;;;;42.87;25.60;;;;;;;;;;5417394;26;20246;-84
2024/04/17 06:50:23;;;;;;;36.80;24.97;;;;;;;;;;5404528;26;20516;-85
2024/04/17 06:52:49;;;;;;;34.63;24.15;;;;;;;;;;5405095;26;20851;-85
2024/04/17 06:55:15;;;;;;;33.83;24.20;;;;;;;;;;5402356;26;20283;-85
2024/04/17 06:57:41;;;;;;;35.33;27.20;;;;;;;;;;5408978;26;20458;-85
2024/04/17 07:00:07;;;;;;;35.17;25.67;;;;;;;;;;5412625;26;20299;-85
2024/04/17 07:02:33;;;;;;;30.25;24.33;;;;;;;;;;5406281;26;20911;-85
2024/04/17 07:04:59;;;;;;;25.17;22.55;;;;;;;;;;5393521;26;20239;-84
2024/04/17 07:10:37;;;;;;;30.08;23.38;;;;;;;;;;5395660;26;20572;-94
2024/04/17 07:13:03;;;;;;;34.60;23.70;;;;;;;;;;5404707;26;20281;-95
2024/04/17 07:15:40;;;;;;;24.75;22.50;;;;;;;;;;5401962;26;20351;-95
2024/04/17 07:18:45;;;;;;;;;;;;;;;;;;;;;
2024/04/17 07:21:47;;;;;;;23.05;20.67;;;;;;;;;;5535220;21;20275;-91
2024/04/17 07:43:11;;;;;;;19.75;18.13;;;;;;;;;;5062201;28;20252;-86
2024/04/17 07:45:37;;;;;;;16.37;15.30;;;;;;;;;;5236019;27;20288;-85
2024/04/17 07:48:03;;;;;;;15.25;14.35;;;;;;;;;;5341703;26;20582;-87
2024/04/17 07:50:29;;;;;;;16.95;15.82;;;;;;;;;;5375547;26;20715;-87
2024/04/17 07:52:56;;;;;;;17.52;16.33;;;;;;;;;;5371754;26;20266;-88
2024/04/17 07:55:22;;;;;;;15.45;14.48;;;;;;;;;;5367020;26;20230;-88
2024/04/17 07:57:48;;;;;;;17.50;16.20;;;;;;;;;;5376080;26;20274;-89
2024/04/17 08:00:14;;;;;;;21.42;19.52;;;;;;;;;;5376635;26;20475;-88
2024/04/17 08:02:40;;;;;;;20.25;18.40;;;;;;;;;;5364865;26;20246;-88
2024/04/17 08:05:07;;;;;;;22.00;20.20;;;;;;;;;;5383232;26;20274;-88
2024/04/17 08:07:33;;;;;;;19.30;17.45;;;;;;;;;;5367376;26;20588;-88
2024/04/17 08:09:59;;;;;;;18.37;16.93;;;;;;;;;;5400241;26;20308;-89
2024/04/17 08:12:25;;;;;;;21.37;18.33;;;;;;;;;;5375614;26;20522;-88
2024/04/17 08:14:51;;;;;;;19.63;17.60;;;;;;;;;;5398350;26;20469;-88
2024/04/17 08:17:17;;;;;;;20.30;18.33;;;;;;;;;;5372604;26;20279;-88
2024/04/17 08:19:43;;;;;;;19.27;17.57;;;;;;;;;;5374270;26;20742;-89
2024/04/17 08:22:09;;;;;;;19.10;17.80;;;;;;;;;;5363701;26;20533;-88
2024/04/17 08:24:35;;;;;;;19.00;17.60;;;;;;;;;;5371790;26;20419;-87
2024/04/17 08:27:01;;;;;;;19.57;18.17;;;;;;;;;;5370873;26;20547;-88
2024/04/17 08:29:27;;;;;;;19.70;18.00;;;;;;;;;;5363043;26;20524;-88
2024/04/17 08:31:52;;;;;;;20.55;19.00;;;;;;;;;;5377667;26;20523;-88
2024/04/17 08:34:18;;;;;;;19.17;17.77;;;;;;;;;;5387796;26;20276;-88
2024/04/17 08:36:44;;;;;;;19.53;17.77;;;;;;;;;;5387428;26;20887;-90
2024/04/17 08:39:10;;;;;;;17.30;16.13;;;;;;;;;;5399069;26;20470;-89
2024/04/17 08:41:39;;;;;;;19.00;17.42;;;;;;;;;;5358991;26;20512;-90
2024/04/17 08:44:07;;;;;;;19.15;17.55;;;;;;;;;;5361313;26;20571;-89
2024/04/17 08:46:36;;;;;;;38.28;34.80;;;;;;;;;;5404648;26;20233;-88
2024/04/17 08:49:03;;;;;;;22.80;20.77;;;;;;;;;;5372977;26;20243;-88
2024/04/17 08:51:29;;;;;;;17.45;16.05;;;;;;;;;;5410412;26;20247;-88
2024/04/17 08:53:56;;;;;;;19.55;17.85;;;;;;;;;;5388959;26;20316;-88
2024/04/17 08:56:23;;;;;;;17.90;16.20;;;;;;;;;;5374095;26;20547;-88
2024/04/17 08:58:49;;;;;;;17.95;16.58;;;;;;;;;;5386216;26;20700;-88
2024/04/17 09:01:18;;;;;;;17.08;15.80;;;;;;;;;;5379158;26;20239;-89
2024/04/17 09:03:45;;;;;;;17.45;16.20;;;;;;;;;;5378468;26;20243;-88
2024/04/17 09:06:12;;;;;;;18.98;17.35;;;;;;;;;;5370591;26;20633;-89
2024/04/17 09:08:41;;;;;;;19.63;17.92;;;;;;;;;;5408214;26;20726;-88
2024/04/17 09:11:07;;;;;;;18.45;17.02;;;;;;;;;;5380206;26;20243;-90
2024/04/17 09:13:33;;;;;;;19.30;17.55;;;;;;;;;;5379733;26;20430;-90
2024/04/17 09:16:02;;;;;;;18.80;16.97;;;;;;;;;;5360113;26;20274;-88
2024/04/17 09:18:33;;;;;;;19.50;17.95;;;;;;;;;;5371517;26;20511;-89
2024/04/17 09:21:00;;;;;;;19.17;17.73;;;;;;;;;;5373509;26;20768;-89
2024/04/17 09:23:26;;;;;;;19.80;18.27;;;;;;;;;;5369663;26;20547;-90
2024/04/17 09:25:54;;;;;;;21.27;19.40;;;;;;;;;;5365576;26;20290;-90
2024/04/17 09:28:20;;;;;;;21.33;17.65;;;;;;;;;;5383765;26;20945;-89
2024/04/17 09:30:48;;;;;;;26.52;18.70;;;;;;;;;;5373824;26;20262;-90
2024/04/17 09:33:14;;;;;;;22.48;20.13;;;;;;;;;;5383713;26;20571;-90
2024/04/17 09:35:40;;;;;;;23.50;21.70;;;;;;;;;;5365505;26;20243;-89
2024/04/17 09:38:16;;;;;;;21.17;19.17;;;;;;;;;;5393126;26;20801;-91
2024/04/17 09:40:44;;;;;;;20.85;19.08;;;;;;;;;;5376369;26;20585;-90
2024/04/17 09:43:17;;;;;;;20.70;18.65;;;;;;;;;;5378812;26;20282;-89
2024/04/17 09:45:43;;;;;;;20.20;18.60;;;;;;;;;;5369761;26;20627;-89
2024/04/17 09:48:10;;;;;;;21.67;19.83;;;;;;;;;;5378783;26;20801;-88
2024/04/17 09:50:36;;;;;;;19.73;18.30;;;;;;;;;;5379809;26;20243;-88
2024/04/17 09:53:02;;;;;;;20.20;18.05;;;;;;;;;;5388558;26;20319;-87
2024/04/17 09:55:30;;;;;;;21.80;20.02;;;;;;;;;;5392695;26;20645;-87
2024/04/17 09:57:56;;;;;;;19.45;18.10;;;;;;;;;;5369657;26;20236;-87
2024/04/17 10:00:23;;;;;;;20.55;18.55;;;;;;;;;;5361919;26;20358;-87
2024/04/17 10:02:50;;;;;;;18.65;17.20;;;;;;;;;;5378352;26;20244;-86
2024/04/17 10:05:16;;;;;;;19.58;18.00;;;;;;;;;;5366918;26;20248;-86
2024/04/17 10:07:43;;;;;;;20.50;18.35;;;;;;;;;;5371712;26;20244;-86
2024/04/17 10:10:13;;;;;;;18.58;17.27;;;;;;;;;;5361947;26;20681;-86
2024/04/17 10:12:40;;;;;;;18.60;16.88;;;;;;;;;;5378364;26;20287;-86
2024/04/17 10:15:08;;;;;;;16.48;15.10;;;;;;;;;;5379937;26;20240;-86
2024/04/17 10:17:34;;;;;;;20.17;16.75;;;;;;;;;;5360374;26;20247;-85
2024/04/17 10:20:00;;;;;;;15.57;14.45;;;;;;;;;;5373270;26;20228;-85
2024/04/17 10:22:29;;;;;;;15.13;14.23;;;;;;;;;;5370212;26;20346;-84
2024/04/17 10:25:04;;;;;;;16.02;14.63;;;;;;;;;;5376935;26;20251;-85
2024/04/17 10:27:35;;;;;;;16.58;15.30;;;;;;;;;;5358951;26;20236;-84
2024/04/17 10:30:05;;;;;;;15.85;14.73;;;;;;;;;;5401026;26;20290;-84
2024/04/17 10:32:31;;;;;;;15.57;14.25;;;;;;;;;;5367628;26;20277;-83
2024/04/17 10:34:59;;;;;;;16.73;15.13;;;;;;;;;;5372265;26;20295;-83
2024/04/17 10:37:26;;;;;;;13.20;12.30;;;;;;;;;;5373780;26;20236;-83
2024/04/17 10:39:52;;;;;;;13.88;13.05;;;;;;;;;;5364636;26;20245;-85
2024/04/17 10:42:18;;;;;;;12.15;11.05;;;;;;;;;;5376443;26;20239;-85
2024/04/17 10:44:45;;;;;;;12.10;11.23;;;;;;;;;;5367527;26;20274;-84
2024/04/17 10:47:27;;;;;;;13.30;12.27;;;;;;;;;;5366651;26;20291;-85
2024/04/17 10:49:55;;;;;;;11.93;10.93;;;;;;;;;;5363338;26;20250;-84
2024/04/17 10:52:21;;;;;;;11.15;10.40;;;;;;;;;;5369865;26;20649;-83
2024/04/17 10:54:47;;;;;;;11.90;11.18;;;;;;;;;;5371025;26;20274;-85
2024/04/17 10:57:15;;;;;;;11.57;10.63;;;;;;;;;;5361263;26;20355;-84
2024/04/17 10:59:44;;;;;;;11.77;10.97;;;;;;;;;;5377736;26;20515;-84
2024/04/17 11:02:11;;;;;;;11.40;10.50;;;;;;;;;;5378232;26;20469;-83
2024/04/17 11:04:37;;;;;;;10.20;9.40;;;;;;;;;;5365125;26;20610;-84
2024/04/17 11:07:06;;;;;;;9.23;8.50;;;;;;;;;;5366335;26;20466;-84
2024/04/17 11:09:32;;;;;;;8.17;7.47;;;;;;;;;;5369401;26;20455;-83
2024/04/17 11:11:58;;;;;;;8.07;7.37;;;;;;;;;;5393240;26;20820;-84
2024/04/17 11:14:24;;;;;;;8.00;7.27;;;;;;;;;;5355899;26;20467;-87
2024/04/17 11:16:50;;;;;;;8.50;7.70;;;;;;;;;;5381289;26;20885;-82
2024/04/17 11:19:18;;;;;;;9.30;6.40;;;;;;;;;;5368945;26;20547;-84
2024/04/17 11:21:44;;;;;;;7.67;6.90;;;;;;;;;;5395471;26;20880;-85
2024/04/17 11:24:20;;;;;;;7.50;6.93;;;;;;;;;;5366316;26;20574;-85
2024/04/17 11:26:46;;;;;;;7.50;6.90;;;;;;;;;;5370852;26;20492;-84
2024/04/17 11:29:19;;;;;;;7.83;7.00;;;;;;;;;;5360955;26;20435;-84
2024/04/17 11:31:45;;;;;;;7.53;6.90;;;;;;;;;;5387963;26;20634;-84
2024/04/17 11:34:21;;;;;;;8.80;6.53;;;;;;;;;;5380588;26;20529;-84
2024/04/17 11:36:47;;;;;;;8.90;8.20;;;;;;;;;;5380626;26;20567;-85
2024/04/17 11:39:13;;;;;;;7.23;6.83;;;;;;;;;;5388206;26;20805;-85
2024/04/17 11:41:40;;;;;;;8.00;7.33;;;;;;;;;;5367152;26;20550;-85
2024/04/17 11:44:06;;;;;;;8.00;7.30;;;;;;;;;;5391824;26;20837;-85
2024/04/17 11:46:32;;;;;;;9.13;6.60;;;;;;;;;;5377846;26;20439;-84
2024/04/17 11:48:58;;;;;;;8.60;7.87;;;;;;;;;;5364593;26;20687;-85
2024/04/17 11:51:24;;;;;;;8.70;7.40;;;;;;;;;;5397601;26;20514;-84
2024/04/17 11:53:50;;;;;;;6.60;5.97;;;;;;;;;;5358573;26;20534;-85
2024/04/17 11:56:16;;;;;;;7.00;6.60;;;;;;;;;;5368131;26;20923;-84
2024/04/17 11:58:45;;;;;;;7.10;6.57;;;;;;;;;;5392289;26;20479;-82
2024/04/17 12:01:11;;;;;;;7.07;6.57;;;;;;;;;;5354211;26;20467;-85
2024/04/17 12:03:37;;;;;;;7.00;6.30;;;;;;;;;;5374141;26;20944;-83
2024/04/17 12:06:03;;;;;;;5.57;5.15;;;;;;;;;;5363751;26;20530;-86
2024/04/17 12:08:29;;;;;;;6.60;6.10;;;;;;;;;;5363156;26;20623;-87
2024/04/17 12:10:55;;;;;;;7.95;7.53;;;;;;;;;;5356846;26;20458;-82
2024/04/17 12:13:21;;;;;;;7.40;7.00;;;;;;;;;;5371641;26;20278;-86
2024/04/17 12:15:47;;;;;;;7.60;7.00;;;;;;;;;;5376569;26;20469;-84
2024/04/17 12:18:14;;;;;;;7.20;6.70;;;;;;;;;;5360206;26;20531;-87
2024/04/17 12:20:39;;;;;;;6.57;6.20;;;;;;;;;;5350209;26;20462;-86
2024/04/17 12:23:05;;;;;;;5.70;5.30;;;;;;;;;;5365956;26;20778;-87
2024/04/17 12:28:16;;;;;;;6.10;5.60;;;;;;;;;;5376453;26;20500;-84
2024/04/17 12:30:42;;;;;;;5.60;5.13;;;;;;;;;;5367515;26;20716;-85
2024/04/17 12:33:08;;;;;;;7.90;5.80;;;;;;;;;;5371035;26;20831;-87
2024/04/17 12:35:34;;;;;;;6.80;6.50;;;;;;;;;;5359475;26;20463;-86
2024/04/17 12:38:00;;;;;;;7.70;7.30;;;;;;;;;;5374278;26;20534;-83
2024/04/17 12:40:26;;;;;;;7.90;7.47;;;;;;;;;;5367830;26;20232;-83
2024/04/17 12:42:52;;;;;;;6.60;6.30;;;;;;;;;;5355298;26;20531;-83
2024/04/17 12:45:18;;;;;;;8.48;7.75;;;;;;;;;;5357719;26;20475;-85
2024/04/17 12:47:45;;;;;;;106.28;53.20;;;;;;;;;;5379054;26;20247;-85
2024/04/17 12:50:11;;;;;;;9.10;7.75;;;;;;;;;;5368311;26;20786;-88
2024/04/17 12:52:37;;;;;;;7.53;6.35;;;;;;;;;;5363124;26;20240;-87
2024/04/17 12:55:03;;;;;;;7.38;6.88;;;;;;;;;;5370311;26;20232;-89
2024/04/17 12:57:29;;;;;;;8.23;7.68;;;;;;;;;;5361666;26;20241;-88
2024/04/17 12:59:55;;;;;;;7.60;7.10;;;;;;;;;;5366478;26;20275;-87
2024/04/17 13:02:20;;;;;;;8.30;7.60;;;;;;;;;;5389229;26;21054;-86
2024/04/17 13:04:46;;;;;;;8.60;7.80;;;;;;;;;;5376000;26;20847;-87
2024/04/17 13:07:13;;;;;;;7.82;7.30;;;;;;;;;;5364628;26;20533;-85
2024/04/17 13:09:41;;;;;;;7.40;7.00;;;;;;;;;;5376494;26;20573;-85
2024/04/17 13:12:07;;;;;;;7.55;6.95;;;;;;;;;;5368480;26;20232;-87
2024/04/17 13:14:33;;;;;;;6.97;6.57;;;;;;;;;;5368003;26;20228;-85
2024/04/17 13:16:59;;;;;;;7.20;6.80;;;;;;;;;;5353010;26;20229;-85
2024/04/17 13:19:27;;;;;;;7.07;6.47;;;;;;;;;;5363057;26;20473;-84
2024/04/17 13:21:53;;;;;;;7.30;6.80;;;;;;;;;;5367439;26;20856;-86
2024/04/17 13:24:19;;;;;;;11.07;5.83;;;;;;;;;;5356284;26;20240;-85
2024/04/17 13:26:46;;;;;;;6.20;5.90;;;;;;;;;;5364764;26;21103;-83
2024/04/17 13:29:12;;;;;;;6.93;6.47;;;;;;;;;;5368408;26;20622;-87
2024/04/17 13:31:38;;;;;;;6.55;6.18;;;;;;;;;;5378926;26;20541;-83
2024/04/17 13:34:04;;;;;;;6.28;5.97;;;;;;;;;;5384694;26;20711;-83
2024/04/17 13:36:30;;;;;;;9.33;5.73;;;;;;;;;;5378292;26;20285;-83
2024/04/17 13:38:56;;;;;;;6.40;6.00;;;;;;;;;;5376368;26;20533;-83
2024/04/17 13:41:22;;;;;;;6.32;5.72;;;;;;;;;;5375710;26;20533;-84
2024/04/17 13:43:48;;;;;;;6.20;5.60;;;;;;;;;;5374396;26;20298;-84
2024/04/17 13:46:16;;;;;;;6.17;5.77;;;;;;;;;;5370915;26;20794;-87
2024/04/17 13:48:42;;;;;;;5.87;5.57;;;;;;;;;;5375328;26;20463;-86
2024/04/17 13:51:10;;;;;;;6.90;6.33;;;;;;;;;;5369572;26;20529;-84
2024/04/17 13:53:36;;;;;;;5.80;5.40;;;;;;;;;;5374997;26;20561;-85
2024/04/17 13:56:02;;;;;;;5.27;4.87;;;;;;;;;;5378276;26;20461;-87
2024/04/17 13:58:28;;;;;;;5.40;5.00;;;;;;;;;;5366182;26;20578;-86
2024/04/17 14:00:55;;;;;;;5.07;4.67;;;;;;;;;;5379383;26;20805;-86
2024/04/17 14:03:22;;;;;;;5.50;5.20;;;;;;;;;;5368062;26;20451;-85
2024/04/17 14:05:48;;;;;;;5.68;5.28;;;;;;;;;;5366127;26;20467;-85
2024/04/17 14:08:14;;;;;;;5.83;5.40;;;;;;;;;;5375163;26;20298;-85
2024/04/17 14:10:40;;;;;;;8.37;5.50;;;;;;;;;;5386317;26;20461;-85
2024/04/17 14:13:06;;;;;;;5.70;5.30;;;;;;;;;;5368332;26;20875;-85
2024/04/17 14:15:32;;;;;;;5.47;5.10;;;;;;;;;;5365829;26;20498;-85
2024/04/17 14:17:58;;;;;;;6.30;5.70;;;;;;;;;;5360624;26;20483;-84
2024/04/17 14:20:24;;;;;;;5.67;5.37;;;;;;;;;;5370215;26;20459;-86
2024/04/17 14:22:50;;;;;;;6.33;5.83;;;;;;;;;;5364304;26;20851;-85
2024/04/17 14:25:16;;;;;;;7.03;5.30;;;;;;;;;;5380128;26;20783;-85
2024/04/17 14:27:42;;;;;;;5.67;5.37;;;;;;;;;;5357931;26;20451;-85
2024/04/17 14:30:08;;;;;;;5.83;5.37;;;;;;;;;;5375155;26;20678;-84
2024/04/17 14:32:34;;;;;;;5.00;4.60;;;;;;;;;;5363051;26;21052;-85
2024/04/17 14:35:00;;;;;;;6.17;4.70;;;;;;;;;;5378455;26;20465;-85
2024/04/17 14:37:26;;;;;;;5.50;5.10;;;;;;;;;;5365221;26;20810;-85
2024/04/17 14:39:53;;;;;;;5.53;5.13;;;;;;;;;;5370402;26;20466;-85
2024/04/17 14:42:19;;;;;;;6.53;6.13;;;;;;;;;;5375043;26;20466;-85
2024/04/17 14:44:45;;;;;;;5.67;5.27;;;;;;;;;;5377032;26;21013;-86